sensor_id;sensor_type;location;lat;lon;timestamp;P1;durP1;ratioP1;P2;durP2;ratioP2
77051;SDS011;65980;44.898;8.602;2023-08-20T00:01:22;17.80;;;11.32;;
77051;SDS011;65980;44.898;8.602;2023-08-20T00:04:28;17.10;;;11.05;;
77051;SDS011;65980;44.898;8.602;2023-08-20T00:07:35;16.17;;;11.80;;
77051;SDS011;65980;44.898;8.602;2023-08-20T00:10:40;19.17;;;11.77;;
77051;SDS011;65980;44.898;8.602;2023-08-20T00:13:45;17.15;;;11.65;;
77051;SDS011;65980;44.898;8.602;2023-08-20T00:16:50;14.68;;;11.48;;
77051;SDS011;65980;44.898;8.602;2023-08-20T00:19:55;19.80;;;11.23;;
77051;SDS011;65980;44.898;8.602;2023-08-20T00:23:00;16.73;;;11.02;;
77051;SDS011;65980;44.898;8.602;2023-08-20T00:26:05;21.30;;;12.32;;
77051;SDS011;65980;44.898;8.602;2023-08-20T00:29:10;18.92;;;11.85;;
77051;SDS011;65980;44.898;8.602;2023-08-20T00:32:14;17.35;;;11.45;;
77051;SDS011;65980;44.898;8.602;2023-08-20T00:35:19;17.85;;;12.00;;
77051;SDS011;65980;44.898;8.602;2023-08-20T00:38:24;16.20;;;12.88;;
77051;SDS011;65980;44.898;8.602;2023-08-20T00:41:28;20.83;;;12.50;;
77051;SDS011;65980;44.898;8.602;2023-08-20T00:44:32;13.75;;;11.38;;
77051;SDS011;65980;44.898;8.602;2023-08-20T00:47:40;14.35;;;11.10;;
77051;SDS011;65980;44.898;8.602;2023-08-20T00:50:45;14.55;;;11.07;;
77051;SDS011;65980;44.898;8.602;2023-08-20T00:53:50;24.65;;;11.77;;
77051;SDS011;65980;44.898;8.602;2023-08-20T00:56:55;18.75;;;11.70;;
77051;SDS011;65980;44.898;8.602;2023-08-20T00:59:59;16.30;;;13.07;;
77051;SDS011;65980;44.898;8.602;2023-08-20T01:03:06;18.75;;;12.98;;
77051;SDS011;65980;44.898;8.602;2023-08-20T01:06:20;18.98;;;13.60;;
77051;SDS011;65980;44.898;8.602;2023-08-20T01:12:52;16.30;;;12.20;;
77051;SDS011;65980;44.898;8.602;2023-08-20T01:15:57;18.38;;;12.68;;
77051;SDS011;65980;44.898;8.602;2023-08-20T01:19:01;28.33;;;13.10;;
77051;SDS011;65980;44.898;8.602;2023-08-20T01:28:51;21.27;;;14.10;;
77051;SDS011;65980;44.898;8.602;2023-08-20T01:31:55;24.45;;;14.27;;
77051;SDS011;65980;44.898;8.602;2023-08-20T01:35:00;37.42;;;15.20;;
77051;SDS011;65980;44.898;8.602;2023-08-20T01:38:05;24.25;;;15.80;;
77051;SDS011;65980;44.898;8.602;2023-08-20T01:41:09;22.90;;;14.40;;
77051;SDS011;65980;44.898;8.602;2023-08-20T01:44:13;22.35;;;15.45;;
77051;SDS011;65980;44.898;8.602;2023-08-20T01:47:18;17.15;;;14.20;;
77051;SDS011;65980;44.898;8.602;2023-08-20T01:50:22;24.45;;;14.68;;
77051;SDS011;65980;44.898;8.602;2023-08-20T01:53:26;21.30;;;14.80;;
77051;SDS011;65980;44.898;8.602;2023-08-20T01:56:30;23.88;;;15.15;;
77051;SDS011;65980;44.898;8.602;2023-08-20T01:59:35;18.05;;;14.68;;
77051;SDS011;65980;44.898;8.602;2023-08-20T02:02:40;20.08;;;13.60;;
77051;SDS011;65980;44.898;8.602;2023-08-20T02:05:45;17.00;;;13.40;;
77051;SDS011;65980;44.898;8.602;2023-08-20T02:08:50;19.00;;;13.43;;
77051;SDS011;65980;44.898;8.602;2023-08-20T02:11:55;17.98;;;13.80;;
77051;SDS011;65980;44.898;8.602;2023-08-20T02:14:59;18.13;;;12.98;;
77051;SDS011;65980;44.898;8.602;2023-08-20T02:18:03;20.73;;;13.98;;
77051;SDS011;65980;44.898;8.602;2023-08-20T02:21:08;18.25;;;14.57;;
77051;SDS011;65980;44.898;8.602;2023-08-20T02:24:13;18.48;;;13.52;;
77051;SDS011;65980;44.898;8.602;2023-08-20T02:27:17;27.63;;;13.80;;
77051;SDS011;65980;44.898;8.602;2023-08-20T02:30:22;19.90;;;13.90;;
77051;SDS011;65980;44.898;8.602;2023-08-20T02:33:25;20.75;;;13.45;;
77051;SDS011;65980;44.898;8.602;2023-08-20T02:36:30;22.98;;;13.70;;
77051;SDS011;65980;44.898;8.602;2023-08-20T02:39:33;19.70;;;14.80;;
77051;SDS011;65980;44.898;8.602;2023-08-20T02:42:39;21.63;;;13.65;;
77051;SDS011;65980;44.898;8.602;2023-08-20T02:45:44;19.63;;;14.90;;
77051;SDS011;65980;44.898;8.602;2023-08-20T02:48:48;23.25;;;14.68;;
77051;SDS011;65980;44.898;8.602;2023-08-20T02:51:52;15.85;;;14.15;;
77051;SDS011;65980;44.898;8.602;2023-08-20T02:54:56;21.25;;;14.80;;
77051;SDS011;65980;44.898;8.602;2023-08-20T02:57:59;28.73;;;16.20;;
77051;SDS011;65980;44.898;8.602;2023-08-20T03:01:04;19.73;;;15.35;;
77051;SDS011;65980;44.898;8.602;2023-08-20T03:04:09;20.83;;;14.82;;
77051;SDS011;65980;44.898;8.602;2023-08-20T03:07:15;20.70;;;15.45;;
77051;SDS011;65980;44.898;8.602;2023-08-20T03:10:19;21.02;;;14.95;;
77051;SDS011;65980;44.898;8.602;2023-08-20T03:13:24;20.17;;;16.38;;
77051;SDS011;65980;44.898;8.602;2023-08-20T03:16:29;23.45;;;15.18;;
77051;SDS011;65980;44.898;8.602;2023-08-20T03:19:34;20.83;;;15.80;;
77051;SDS011;65980;44.898;8.602;2023-08-20T03:22:41;23.83;;;15.20;;
77051;SDS011;65980;44.898;8.602;2023-08-20T03:25:46;18.80;;;15.30;;
77051;SDS011;65980;44.898;8.602;2023-08-20T03:28:51;23.58;;;16.67;;
77051;SDS011;65980;44.898;8.602;2023-08-20T03:31:56;22.50;;;16.67;;
77051;SDS011;65980;44.898;8.602;2023-08-20T03:35:01;25.85;;;16.88;;
77051;SDS011;65980;44.898;8.602;2023-08-20T03:38:09;23.42;;;16.27;;
77051;SDS011;65980;44.898;8.602;2023-08-20T03:41:14;25.85;;;17.17;;
77051;SDS011;65980;44.898;8.602;2023-08-20T03:44:17;26.25;;;16.58;;
77051;SDS011;65980;44.898;8.602;2023-08-20T03:47:22;26.98;;;16.25;;
77051;SDS011;65980;44.898;8.602;2023-08-20T03:50:26;23.13;;;16.60;;
77051;SDS011;65980;44.898;8.602;2023-08-20T03:53:31;25.27;;;16.05;;
77051;SDS011;65980;44.898;8.602;2023-08-20T03:56:36;21.35;;;16.88;;
77051;SDS011;65980;44.898;8.602;2023-08-20T03:59:40;21.52;;;16.35;;
77051;SDS011;65980;44.898;8.602;2023-08-20T04:02:45;24.58;;;17.13;;
77051;SDS011;65980;44.898;8.602;2023-08-20T04:05:50;36.92;;;19.08;;
77051;SDS011;65980;44.898;8.602;2023-08-20T04:08:55;25.92;;;18.80;;
77051;SDS011;65980;44.898;8.602;2023-08-20T04:12:00;24.70;;;18.15;;
77051;SDS011;65980;44.898;8.602;2023-08-20T04:15:05;25.35;;;18.05;;
77051;SDS011;65980;44.898;8.602;2023-08-20T04:18:09;25.42;;;18.83;;
77051;SDS011;65980;44.898;8.602;2023-08-20T04:21:14;26.92;;;18.63;;
77051;SDS011;65980;44.898;8.602;2023-08-20T04:24:19;29.45;;;19.13;;
77051;SDS011;65980;44.898;8.602;2023-08-20T04:27:24;30.45;;;20.20;;
77051;SDS011;65980;44.898;8.602;2023-08-20T04:30:28;23.65;;;17.23;;
77051;SDS011;65980;44.898;8.602;2023-08-20T04:33:32;25.48;;;18.70;;
77051;SDS011;65980;44.898;8.602;2023-08-20T04:36:36;28.70;;;18.88;;
77051;SDS011;65980;44.898;8.602;2023-08-20T04:39:40;29.35;;;18.63;;
77051;SDS011;65980;44.898;8.602;2023-08-20T04:42:44;25.77;;;17.20;;
77051;SDS011;65980;44.898;8.602;2023-08-20T04:45:49;22.85;;;18.08;;
77051;SDS011;65980;44.898;8.602;2023-08-20T04:48:53;24.95;;;18.63;;
77051;SDS011;65980;44.898;8.602;2023-08-20T04:51:57;29.88;;;18.85;;
77051;SDS011;65980;44.898;8.602;2023-08-20T04:55:02;29.45;;;19.20;;
77051;SDS011;65980;44.898;8.602;2023-08-20T04:58:08;29.33;;;18.20;;
77051;SDS011;65980;44.898;8.602;2023-08-20T05:01:13;27.05;;;18.05;;
77051;SDS011;65980;44.898;8.602;2023-08-20T05:04:18;31.30;;;20.90;;
77051;SDS011;65980;44.898;8.602;2023-08-20T05:07:22;31.25;;;21.30;;
77051;SDS011;65980;44.898;8.602;2023-08-20T05:10:27;30.42;;;22.58;;
77051;SDS011;65980;44.898;8.602;2023-08-20T05:13:32;38.35;;;21.48;;
77051;SDS011;65980;44.898;8.602;2023-08-20T05:16:37;31.45;;;19.80;;
77051;SDS011;65980;44.898;8.602;2023-08-20T05:19:41;29.15;;;20.75;;
77051;SDS011;65980;44.898;8.602;2023-08-20T05:22:47;33.50;;;20.15;;
77051;SDS011;65980;44.898;8.602;2023-08-20T05:25:52;34.17;;;19.70;;
77051;SDS011;65980;44.898;8.602;2023-08-20T05:28:58;40.95;;;21.55;;
77051;SDS011;65980;44.898;8.602;2023-08-20T05:32:02;34.47;;;21.25;;
77051;SDS011;65980;44.898;8.602;2023-08-20T05:35:06;37.47;;;20.48;;
77051;SDS011;65980;44.898;8.602;2023-08-20T05:38:12;31.80;;;20.88;;
77051;SDS011;65980;44.898;8.602;2023-08-20T05:41:17;22.90;;;18.42;;
77051;SDS011;65980;44.898;8.602;2023-08-20T05:44:21;26.50;;;20.52;;
77051;SDS011;65980;44.898;8.602;2023-08-20T05:47:28;31.20;;;21.52;;
77051;SDS011;65980;44.898;8.602;2023-08-20T05:50:32;31.42;;;22.17;;
77051;SDS011;65980;44.898;8.602;2023-08-20T05:53:37;38.55;;;23.00;;
77051;SDS011;65980;44.898;8.602;2023-08-20T05:56:42;28.73;;;22.27;;
77051;SDS011;65980;44.898;8.602;2023-08-20T05:59:47;30.88;;;22.00;;
77051;SDS011;65980;44.898;8.602;2023-08-20T06:02:50;35.40;;;22.13;;
77051;SDS011;65980;44.898;8.602;2023-08-20T06:05:56;32.83;;;23.17;;
77051;SDS011;65980;44.898;8.602;2023-08-20T06:09:02;34.88;;;22.92;;
77051;SDS011;65980;44.898;8.602;2023-08-20T06:12:07;35.85;;;24.23;;
77051;SDS011;65980;44.898;8.602;2023-08-20T06:15:12;31.98;;;24.02;;
77051;SDS011;65980;44.898;8.602;2023-08-20T06:18:16;29.77;;;22.20;;
77051;SDS011;65980;44.898;8.602;2023-08-20T06:21:19;41.33;;;26.23;;
77051;SDS011;65980;44.898;8.602;2023-08-20T06:24:23;41.33;;;27.17;;
77051;SDS011;65980;44.898;8.602;2023-08-20T06:27:27;40.92;;;27.58;;
77051;SDS011;65980;44.898;8.602;2023-08-20T06:30:32;40.00;;;26.40;;
77051;SDS011;65980;44.898;8.602;2023-08-20T06:33:37;39.40;;;27.63;;
77051;SDS011;65980;44.898;8.602;2023-08-20T06:36:41;39.88;;;27.45;;
77051;SDS011;65980;44.898;8.602;2023-08-20T06:39:45;43.15;;;28.38;;
77051;SDS011;65980;44.898;8.602;2023-08-20T06:42:50;36.72;;;25.65;;
77051;SDS011;65980;44.898;8.602;2023-08-20T06:45:55;40.70;;;27.85;;
77051;SDS011;65980;44.898;8.602;2023-08-20T06:48:58;34.95;;;23.55;;
77051;SDS011;65980;44.898;8.602;2023-08-20T06:52:02;40.03;;;28.58;;
77051;SDS011;65980;44.898;8.602;2023-08-20T06:55:07;44.78;;;28.42;;
77051;SDS011;65980;44.898;8.602;2023-08-20T06:58:12;39.97;;;27.70;;
77051;SDS011;65980;44.898;8.602;2023-08-20T07:01:17;40.78;;;28.02;;
77051;SDS011;65980;44.898;8.602;2023-08-20T07:04:22;40.72;;;28.38;;
77051;SDS011;65980;44.898;8.602;2023-08-20T07:07:27;32.50;;;25.73;;
77051;SDS011;65980;44.898;8.602;2023-08-20T07:10:31;37.72;;;24.67;;
77051;SDS011;65980;44.898;8.602;2023-08-20T07:13:35;37.28;;;25.92;;
77051;SDS011;65980;44.898;8.602;2023-08-20T07:16:41;33.58;;;24.25;;
77051;SDS011;65980;44.898;8.602;2023-08-20T07:19:46;36.97;;;24.60;;
77051;SDS011;65980;44.898;8.602;2023-08-20T07:22:51;35.63;;;24.35;;
77051;SDS011;65980;44.898;8.602;2023-08-20T07:26:10;35.05;;;25.40;;
77051;SDS011;65980;44.898;8.602;2023-08-20T07:29:15;34.15;;;25.17;;
77051;SDS011;65980;44.898;8.602;2023-08-20T07:32:19;34.28;;;24.23;;
77051;SDS011;65980;44.898;8.602;2023-08-20T07:35:23;33.60;;;23.50;;
77051;SDS011;65980;44.898;8.602;2023-08-20T07:38:28;40.50;;;25.73;;
77051;SDS011;65980;44.898;8.602;2023-08-20T07:41:32;36.58;;;24.25;;
77051;SDS011;65980;44.898;8.602;2023-08-20T07:44:36;33.95;;;22.13;;
77051;SDS011;65980;44.898;8.602;2023-08-20T07:47:40;32.47;;;24.70;;
77051;SDS011;65980;44.898;8.602;2023-08-20T07:50:45;34.90;;;24.15;;
77051;SDS011;65980;44.898;8.602;2023-08-20T07:53:50;31.83;;;21.33;;
77051;SDS011;65980;44.898;8.602;2023-08-20T07:56:54;37.83;;;24.52;;
77051;SDS011;65980;44.898;8.602;2023-08-20T07:59:58;30.80;;;22.05;;
77051;SDS011;65980;44.898;8.602;2023-08-20T08:03:03;32.53;;;23.35;;
77051;SDS011;65980;44.898;8.602;2023-08-20T08:06:07;28.10;;;21.40;;
77051;SDS011;65980;44.898;8.602;2023-08-20T08:09:25;36.38;;;22.80;;
77051;SDS011;65980;44.898;8.602;2023-08-20T08:12:33;25.75;;;20.92;;
77051;SDS011;65980;44.898;8.602;2023-08-20T08:15:37;30.42;;;20.00;;
77051;SDS011;65980;44.898;8.602;2023-08-20T08:18:41;29.50;;;21.67;;
77051;SDS011;65980;44.898;8.602;2023-08-20T08:21:48;26.85;;;19.77;;
77051;SDS011;65980;44.898;8.602;2023-08-20T08:24:52;29.58;;;20.70;;
77051;SDS011;65980;44.898;8.602;2023-08-20T08:27:56;29.52;;;20.38;;
77051;SDS011;65980;44.898;8.602;2023-08-20T08:31:00;29.10;;;21.75;;
77051;SDS011;65980;44.898;8.602;2023-08-20T08:34:04;33.17;;;20.20;;
77051;SDS011;65980;44.898;8.602;2023-08-20T08:37:08;34.03;;;18.00;;
77051;SDS011;65980;44.898;8.602;2023-08-20T08:40:13;25.75;;;18.08;;
77051;SDS011;65980;44.898;8.602;2023-08-20T08:43:18;27.92;;;18.50;;
77051;SDS011;65980;44.898;8.602;2023-08-20T08:46:23;22.27;;;17.25;;
77051;SDS011;65980;44.898;8.602;2023-08-20T08:49:28;25.50;;;16.85;;
77051;SDS011;65980;44.898;8.602;2023-08-20T08:52:34;16.27;;;13.73;;
77051;SDS011;65980;44.898;8.602;2023-08-20T08:55:40;19.23;;;14.27;;
77051;SDS011;65980;44.898;8.602;2023-08-20T08:58:44;20.15;;;14.82;;
77051;SDS011;65980;44.898;8.602;2023-08-20T09:01:48;20.00;;;16.10;;
77051;SDS011;65980;44.898;8.602;2023-08-20T09:04:53;21.95;;;15.90;;
77051;SDS011;65980;44.898;8.602;2023-08-20T09:07:57;21.13;;;16.98;;
77051;SDS011;65980;44.898;8.602;2023-08-20T09:11:01;20.60;;;13.95;;
77051;SDS011;65980;44.898;8.602;2023-08-20T09:14:06;22.50;;;14.60;;
77051;SDS011;65980;44.898;8.602;2023-08-20T09:17:10;21.98;;;14.93;;
77051;SDS011;65980;44.898;8.602;2023-08-20T09:20:15;21.85;;;15.85;;
77051;SDS011;65980;44.898;8.602;2023-08-20T09:23:19;20.60;;;14.70;;
77051;SDS011;65980;44.898;8.602;2023-08-20T09:26:23;18.17;;;12.82;;
77051;SDS011;65980;44.898;8.602;2023-08-20T09:29:28;21.60;;;16.23;;
77051;SDS011;65980;44.898;8.602;2023-08-20T09:32:33;18.02;;;14.13;;
77051;SDS011;65980;44.898;8.602;2023-08-20T09:35:38;22.67;;;13.55;;
77051;SDS011;65980;44.898;8.602;2023-08-20T09:38:51;17.00;;;11.70;;
77051;SDS011;65980;44.898;8.602;2023-08-20T09:41:56;16.48;;;11.23;;
77051;SDS011;65980;44.898;8.602;2023-08-20T09:45:04;18.63;;;12.05;;
77051;SDS011;65980;44.898;8.602;2023-08-20T09:48:11;24.38;;;12.80;;
77051;SDS011;65980;44.898;8.602;2023-08-20T09:51:25;18.35;;;11.45;;
77051;SDS011;65980;44.898;8.602;2023-08-20T09:54:57;19.95;;;11.23;;
77051;SDS011;65980;44.898;8.602;2023-08-20T09:58:09;12.57;;;9.18;;
77051;SDS011;65980;44.898;8.602;2023-08-20T10:01:16;13.55;;;8.65;;
77051;SDS011;65980;44.898;8.602;2023-08-20T10:04:22;13.70;;;8.60;;
77051;SDS011;65980;44.898;8.602;2023-08-20T10:07:28;11.20;;;9.15;;
77051;SDS011;65980;44.898;8.602;2023-08-20T10:10:34;16.80;;;9.50;;
77051;SDS011;65980;44.898;8.602;2023-08-20T10:13:38;12.50;;;8.13;;
77051;SDS011;65980;44.898;8.602;2023-08-20T10:16:43;15.70;;;9.35;;
77051;SDS011;65980;44.898;8.602;2023-08-20T10:19:47;11.52;;;8.93;;
77051;SDS011;65980;44.898;8.602;2023-08-20T10:22:51;11.55;;;8.60;;
77051;SDS011;65980;44.898;8.602;2023-08-20T10:25:55;15.48;;;8.20;;
77051;SDS011;65980;44.898;8.602;2023-08-20T10:32:46;9.77;;;6.55;;
77051;SDS011;65980;44.898;8.602;2023-08-20T10:36:23;12.68;;;7.03;;
77051;SDS011;65980;44.898;8.602;2023-08-20T10:39:29;12.15;;;6.80;;
77051;SDS011;65980;44.898;8.602;2023-08-20T10:42:41;12.02;;;6.50;;
77051;SDS011;65980;44.898;8.602;2023-08-20T10:45:47;11.63;;;6.10;;
77051;SDS011;65980;44.898;8.602;2023-08-20T10:49:07;9.90;;;6.78;;
77051;SDS011;65980;44.898;8.602;2023-08-20T10:52:12;10.73;;;6.70;;
77051;SDS011;65980;44.898;8.602;2023-08-20T10:55:21;8.18;;;6.18;;
77051;SDS011;65980;44.898;8.602;2023-08-20T10:58:30;10.77;;;6.28;;
77051;SDS011;65980;44.898;8.602;2023-08-20T11:01:35;12.95;;;6.95;;
77051;SDS011;65980;44.898;8.602;2023-08-20T11:04:39;10.10;;;6.70;;
77051;SDS011;65980;44.898;8.602;2023-08-20T11:07:44;11.73;;;7.45;;
77051;SDS011;65980;44.898;8.602;2023-08-20T11:10:54;9.18;;;6.82;;
77051;SDS011;65980;44.898;8.602;2023-08-20T11:14:06;11.98;;;7.78;;
77051;SDS011;65980;44.898;8.602;2023-08-20T11:17:11;15.23;;;7.80;;
77051;SDS011;65980;44.898;8.602;2023-08-20T11:20:15;9.93;;;7.68;;
77051;SDS011;65980;44.898;8.602;2023-08-20T11:23:20;9.70;;;7.63;;
77051;SDS011;65980;44.898;8.602;2023-08-20T11:26:26;10.70;;;6.97;;
77051;SDS011;65980;44.898;8.602;2023-08-20T11:29:31;13.73;;;7.75;;
77051;SDS011;65980;44.898;8.602;2023-08-20T11:32:36;11.05;;;7.40;;
77051;SDS011;65980;44.898;8.602;2023-08-20T11:35:40;9.15;;;7.22;;
77051;SDS011;65980;44.898;8.602;2023-08-20T11:38:52;12.50;;;7.40;;
77051;SDS011;65980;44.898;8.602;2023-08-20T11:41:57;8.80;;;6.93;;
77051;SDS011;65980;44.898;8.602;2023-08-20T11:45:03;12.52;;;7.25;;
77051;SDS011;65980;44.898;8.602;2023-08-20T11:48:08;13.50;;;6.82;;
77051;SDS011;65980;44.898;8.602;2023-08-20T11:51:13;10.52;;;6.70;;
77051;SDS011;65980;44.898;8.602;2023-08-20T11:54:19;13.60;;;6.32;;
77051;SDS011;65980;44.898;8.602;2023-08-20T11:57:24;13.45;;;6.40;;
77051;SDS011;65980;44.898;8.602;2023-08-20T12:00:30;13.38;;;6.68;;
77051;SDS011;65980;44.898;8.602;2023-08-20T12:03:38;15.18;;;6.80;;
77051;SDS011;65980;44.898;8.602;2023-08-20T12:06:43;10.43;;;6.90;;
77051;SDS011;65980;44.898;8.602;2023-08-20T12:09:48;11.88;;;6.63;;
77051;SDS011;65980;44.898;8.602;2023-08-20T12:12:52;12.07;;;6.85;;
77051;SDS011;65980;44.898;8.602;2023-08-20T12:15:58;13.77;;;6.28;;
77051;SDS011;65980;44.898;8.602;2023-08-20T12:19:02;8.75;;;6.28;;
77051;SDS011;65980;44.898;8.602;2023-08-20T12:22:08;12.48;;;7.05;;
77051;SDS011;65980;44.898;8.602;2023-08-20T12:25:12;10.88;;;7.00;;
77051;SDS011;65980;44.898;8.602;2023-08-20T12:28:16;11.65;;;6.88;;
77051;SDS011;65980;44.898;8.602;2023-08-20T12:31:21;12.50;;;6.82;;
77051;SDS011;65980;44.898;8.602;2023-08-20T12:34:26;9.05;;;6.95;;
77051;SDS011;65980;44.898;8.602;2023-08-20T12:37:33;12.05;;;6.75;;
77051;SDS011;65980;44.898;8.602;2023-08-20T12:40:38;9.25;;;6.43;;
77051;SDS011;65980;44.898;8.602;2023-08-20T12:43:42;10.02;;;7.05;;
77051;SDS011;65980;44.898;8.602;2023-08-20T12:46:47;13.15;;;6.95;;
77051;SDS011;65980;44.898;8.602;2023-08-20T12:49:51;13.18;;;7.05;;
77051;SDS011;65980;44.898;8.602;2023-08-20T12:52:55;11.63;;;7.07;;
77051;SDS011;65980;44.898;8.602;2023-08-20T12:55:59;10.40;;;7.30;;
77051;SDS011;65980;44.898;8.602;2023-08-20T12:59:03;11.25;;;7.72;;
77051;SDS011;65980;44.898;8.602;2023-08-20T13:02:07;14.52;;;7.60;;
77051;SDS011;65980;44.898;8.602;2023-08-20T13:05:12;10.00;;;7.45;;
77051;SDS011;65980;44.898;8.602;2023-08-20T13:08:17;10.65;;;7.00;;
77051;SDS011;65980;44.898;8.602;2023-08-20T13:11:21;11.93;;;7.00;;
77051;SDS011;65980;44.898;8.602;2023-08-20T13:14:29;13.85;;;7.40;;
77051;SDS011;65980;44.898;8.602;2023-08-20T13:17:34;12.63;;;6.95;;
77051;SDS011;65980;44.898;8.602;2023-08-20T13:20:39;11.02;;;7.00;;
77051;SDS011;65980;44.898;8.602;2023-08-20T13:23:44;10.40;;;7.40;;
77051;SDS011;65980;44.898;8.602;2023-08-20T13:26:50;15.63;;;7.60;;
77051;SDS011;65980;44.898;8.602;2023-08-20T13:30:01;11.82;;;7.75;;
77051;SDS011;65980;44.898;8.602;2023-08-20T13:33:05;10.32;;;6.80;;
77051;SDS011;65980;44.898;8.602;2023-08-20T13:36:09;9.55;;;7.10;;
77051;SDS011;65980;44.898;8.602;2023-08-20T13:39:13;16.95;;;7.32;;
77051;SDS011;65980;44.898;8.602;2023-08-20T13:42:18;11.15;;;7.55;;
77051;SDS011;65980;44.898;8.602;2023-08-20T13:45:22;11.60;;;6.90;;
77051;SDS011;65980;44.898;8.602;2023-08-20T13:48:27;12.07;;;7.22;;
77051;SDS011;65980;44.898;8.602;2023-08-20T13:51:31;9.18;;;6.82;;
77051;SDS011;65980;44.898;8.602;2023-08-20T13:54:35;11.52;;;7.00;;
77051;SDS011;65980;44.898;8.602;2023-08-20T13:57:40;11.57;;;7.15;;
77051;SDS011;65980;44.898;8.602;2023-08-20T14:00:47;10.55;;;7.20;;
77051;SDS011;65980;44.898;8.602;2023-08-20T14:03:55;10.52;;;7.47;;
77051;SDS011;65980;44.898;8.602;2023-08-20T14:07:01;10.70;;;7.15;;
77051;SDS011;65980;44.898;8.602;2023-08-20T14:10:07;9.27;;;6.88;;
77051;SDS011;65980;44.898;8.602;2023-08-20T14:13:12;15.02;;;6.68;;
77051;SDS011;65980;44.898;8.602;2023-08-20T14:16:17;11.48;;;6.63;;
77051;SDS011;65980;44.898;8.602;2023-08-20T14:19:22;11.88;;;6.90;;
77051;SDS011;65980;44.898;8.602;2023-08-20T14:22:26;11.07;;;6.60;;
77051;SDS011;65980;44.898;8.602;2023-08-20T14:25:30;11.80;;;7.05;;
77051;SDS011;65980;44.898;8.602;2023-08-20T14:28:34;12.80;;;7.00;;
77051;SDS011;65980;44.898;8.602;2023-08-20T14:31:38;11.70;;;6.85;;
77051;SDS011;65980;44.898;8.602;2023-08-20T14:34:43;11.65;;;6.20;;
77051;SDS011;65980;44.898;8.602;2023-08-20T14:37:47;8.93;;;6.88;;
77051;SDS011;65980;44.898;8.602;2023-08-20T14:40:51;8.60;;;6.72;;
77051;SDS011;65980;44.898;8.602;2023-08-20T14:43:55;13.43;;;7.00;;
77051;SDS011;65980;44.898;8.602;2023-08-20T14:46:59;13.63;;;6.90;;
77051;SDS011;65980;44.898;8.602;2023-08-20T14:50:03;9.15;;;6.78;;
77051;SDS011;65980;44.898;8.602;2023-08-20T14:53:09;10.45;;;7.00;;
77051;SDS011;65980;44.898;8.602;2023-08-20T14:56:13;10.50;;;6.65;;
77051;SDS011;65980;44.898;8.602;2023-08-20T14:59:17;10.90;;;6.97;;
77051;SDS011;65980;44.898;8.602;2023-08-20T15:02:21;9.73;;;7.15;;
77051;SDS011;65980;44.898;8.602;2023-08-20T15:05:25;9.05;;;6.60;;
77051;SDS011;65980;44.898;8.602;2023-08-20T15:08:30;12.18;;;7.40;;
77051;SDS011;65980;44.898;8.602;2023-08-20T15:11:34;15.23;;;7.13;;
77051;SDS011;65980;44.898;8.602;2023-08-20T15:14:39;10.32;;;7.22;;
77051;SDS011;65980;44.898;8.602;2023-08-20T15:17:44;10.75;;;7.20;;
77051;SDS011;65980;44.898;8.602;2023-08-20T15:20:57;11.00;;;7.18;;
77051;SDS011;65980;44.898;8.602;2023-08-20T15:24:03;9.65;;;6.68;;
77051;SDS011;65980;44.898;8.602;2023-08-20T15:27:08;9.60;;;6.43;;
77051;SDS011;65980;44.898;8.602;2023-08-20T15:30:12;11.38;;;7.43;;
77051;SDS011;65980;44.898;8.602;2023-08-20T15:33:16;9.35;;;6.93;;
77051;SDS011;65980;44.898;8.602;2023-08-20T15:36:20;7.47;;;6.65;;
77051;SDS011;65980;44.898;8.602;2023-08-20T15:39:25;13.80;;;7.10;;
77051;SDS011;65980;44.898;8.602;2023-08-20T15:42:29;10.82;;;6.93;;
77051;SDS011;65980;44.898;8.602;2023-08-20T15:45:32;10.85;;;7.03;;
77051;SDS011;65980;44.898;8.602;2023-08-20T15:48:37;11.45;;;7.15;;
77051;SDS011;65980;44.898;8.602;2023-08-20T15:51:41;12.93;;;6.95;;
77051;SDS011;65980;44.898;8.602;2023-08-20T15:54:46;10.40;;;6.50;;
77051;SDS011;65980;44.898;8.602;2023-08-20T15:57:51;9.52;;;6.68;;
77051;SDS011;65980;44.898;8.602;2023-08-20T16:00:55;8.57;;;6.55;;
77051;SDS011;65980;44.898;8.602;2023-08-20T16:03:59;9.82;;;6.25;;
77051;SDS011;65980;44.898;8.602;2023-08-20T16:07:03;9.20;;;6.75;;
77051;SDS011;65980;44.898;8.602;2023-08-20T16:10:09;9.90;;;6.32;;
77051;SDS011;65980;44.898;8.602;2023-08-20T16:13:14;10.70;;;6.32;;
77051;SDS011;65980;44.898;8.602;2023-08-20T16:16:18;14.35;;;6.65;;
77051;SDS011;65980;44.898;8.602;2023-08-20T16:19:22;9.77;;;6.65;;
77051;SDS011;65980;44.898;8.602;2023-08-20T16:22:26;9.73;;;6.40;;
77051;SDS011;65980;44.898;8.602;2023-08-20T16:25:31;11.80;;;6.85;;
77051;SDS011;65980;44.898;8.602;2023-08-20T16:28:40;11.65;;;6.32;;
77051;SDS011;65980;44.898;8.602;2023-08-20T16:31:46;10.20;;;6.20;;
77051;SDS011;65980;44.898;8.602;2023-08-20T16:34:51;11.40;;;6.28;;
77051;SDS011;65980;44.898;8.602;2023-08-20T16:37:55;11.05;;;6.57;;
77051;SDS011;65980;44.898;8.602;2023-08-20T16:40:59;11.27;;;6.85;;
77051;SDS011;65980;44.898;8.602;2023-08-20T16:44:06;10.52;;;7.10;;
77051;SDS011;65980;44.898;8.602;2023-08-20T16:47:10;14.35;;;6.63;;
77051;SDS011;65980;44.898;8.602;2023-08-20T16:50:14;10.27;;;6.57;;
77051;SDS011;65980;44.898;8.602;2023-08-20T16:53:21;12.43;;;6.72;;
77051;SDS011;65980;44.898;8.602;2023-08-20T16:56:25;11.25;;;6.68;;
77051;SDS011;65980;44.898;8.602;2023-08-20T16:59:29;9.13;;;6.20;;
77051;SDS011;65980;44.898;8.602;2023-08-20T17:02:34;13.13;;;6.40;;
77051;SDS011;65980;44.898;8.602;2023-08-20T17:05:41;9.15;;;6.45;;
77051;SDS011;65980;44.898;8.602;2023-08-20T17:08:46;14.50;;;6.75;;
77051;SDS011;65980;44.898;8.602;2023-08-20T17:11:50;8.43;;;6.43;;
77051;SDS011;65980;44.898;8.602;2023-08-20T17:14:54;10.32;;;6.20;;
77051;SDS011;65980;44.898;8.602;2023-08-20T17:17:59;11.20;;;6.60;;
77051;SDS011;65980;44.898;8.602;2023-08-20T17:21:03;9.18;;;6.38;;
77051;SDS011;65980;44.898;8.602;2023-08-20T17:24:08;9.65;;;5.72;;
77051;SDS011;65980;44.898;8.602;2023-08-20T17:27:12;9.50;;;6.53;;
77051;SDS011;65980;44.898;8.602;2023-08-20T17:30:16;11.40;;;6.38;;
77051;SDS011;65980;44.898;8.602;2023-08-20T17:33:19;16.70;;;6.68;;
77051;SDS011;65980;44.898;8.602;2023-08-20T17:36:24;11.70;;;6.57;;
77051;SDS011;65980;44.898;8.602;2023-08-20T17:39:28;10.43;;;7.03;;
77051;SDS011;65980;44.898;8.602;2023-08-20T17:42:32;13.45;;;7.18;;
77051;SDS011;65980;44.898;8.602;2023-08-20T17:45:36;9.57;;;7.22;;
77051;SDS011;65980;44.898;8.602;2023-08-20T17:48:40;10.70;;;7.10;;
77051;SDS011;65980;44.898;8.602;2023-08-20T17:51:44;9.52;;;7.15;;
77051;SDS011;65980;44.898;8.602;2023-08-20T17:54:49;9.85;;;6.80;;
77051;SDS011;65980;44.898;8.602;2023-08-20T17:57:54;12.45;;;7.05;;
77051;SDS011;65980;44.898;8.602;2023-08-20T18:00:58;11.15;;;7.03;;
77051;SDS011;65980;44.898;8.602;2023-08-20T18:04:03;13.27;;;7.63;;
77051;SDS011;65980;44.898;8.602;2023-08-20T18:07:07;13.00;;;7.60;;
77051;SDS011;65980;44.898;8.602;2023-08-20T18:10:11;13.30;;;7.25;;
77051;SDS011;65980;44.898;8.602;2023-08-20T18:13:16;10.75;;;7.00;;
77051;SDS011;65980;44.898;8.602;2023-08-20T18:16:21;10.20;;;7.50;;
77051;SDS011;65980;44.898;8.602;2023-08-20T18:19:25;10.05;;;7.30;;
77051;SDS011;65980;44.898;8.602;2023-08-20T18:22:29;10.95;;;7.18;;
77051;SDS011;65980;44.898;8.602;2023-08-20T18:25:33;10.98;;;6.93;;